sensor_id;sensor_type;location;lat;lon;timestamp;temperature;humidity
11922;DHT22;6021;51.182;3.160;2022-12-10T00:01:49;1.30;99.90
11922;DHT22;6021;51.182;3.160;2022-12-10T00:04:19;1.20;99.90
11922;DHT22;6021;51.182;3.160;2022-12-10T00:06:47;1.30;99.90
11922;DHT22;6021;51.182;3.160;2022-12-10T00:09:17;1.30;99.90
11922;DHT22;6021;51.182;3.160;2022-12-10T00:11:46;1.30;99.90
11922;DHT22;6021;51.182;3.160;2022-12-10T00:14:14;1.50;99.90
11922;DHT22;6021;51.182;3.160;2022-12-10T00:16:43;1.30;99.90
11922;DHT22;6021;51.182;3.160;2022-12-10T00:19:11;1.50;99.90
11922;DHT22;6021;51.182;3.160;2022-12-10T00:21:39;1.50;99.90
11922;DHT22;6021;51.182;3.160;2022-12-10T00:24:10;1.50;99.90
11922;DHT22;6021;51.182;3.160;2022-12-10T00:26:39;1.30;99.90
11922;DHT22;6021;51.182;3.160;2022-12-10T00:29:09;1.30;99.90
11922;DHT22;6021;51.182;3.160;2022-12-10T00:31:38;1.20;99.90
11922;DHT22;6021;51.182;3.160;2022-12-10T00:34:09;1.30;99.90
11922;DHT22;6021;51.182;3.160;2022-12-10T00:36:41;1.70;99.90
11922;DHT22;6021;51.182;3.160;2022-12-10T00:39:10;1.60;99.90
11922;DHT22;6021;51.182;3.160;2022-12-10T00:41:39;1.70;99.90
11922;DHT22;6021;51.182;3.160;2022-12-10T00:44:08;1.40;99.90
11922;DHT22;6021;51.182;3.160;2022-12-10T00:46:36;1.10;99.90
11922;DHT22;6021;51.182;3.160;2022-12-10T00:49:05;1.60;99.90
11922;DHT22;6021;51.182;3.160;2022-12-10T00:51:33;1.30;99.90
11922;DHT22;6021;51.182;3.160;2022-12-10T00:54:02;1.20;99.90
11922;DHT22;6021;51.182;3.160;2022-12-10T00:56:32;1.30;99.90
11922;DHT22;6021;51.182;3.160;2022-12-10T00:59:01;1.10;99.90
11922;DHT22;6021;51.182;3.160;2022-12-10T01:01:41;1.20;99.90
11922;DHT22;6021;51.182;3.160;2022-12-10T01:04:08;0.90;99.90
11922;DHT22;6021;51.182;3.160;2022-12-10T01:06:45;0.90;99.90
11922;DHT22;6021;51.182;3.160;2022-12-10T01:09:16;0.80;99.90
11922;DHT22;6021;51.182;3.160;2022-12-10T01:11:46;0.80;99.90
11922;DHT22;6021;51.182;3.160;2022-12-10T01:14:18;1.10;99.90
11922;DHT22;6021;51.182;3.160;2022-12-10T01:16:47;1.00;99.90
11922;DHT22;6021;51.182;3.160;2022-12-10T01:19:17;1.10;99.90
11922;DHT22;6021;51.182;3.160;2022-12-10T01:21:48;1.20;99.90
11922;DHT22;6021;51.182;3.160;2022-12-10T01:24:23;1.10;99.90
11922;DHT22;6021;51.182;3.160;2022-12-10T01:26:52;1.20;99.90
11922;DHT22;6021;51.182;3.160;2022-12-10T01:29:23;1.20;99.90
11922;DHT22;6021;51.182;3.160;2022-12-10T01:31:53;1.10;99.90
11922;DHT22;6021;51.182;3.160;2022-12-10T01:34:22;1.20;99.90
11922;DHT22;6021;51.182;3.160;2022-12-10T01:36:53;0.90;99.90
11922;DHT22;6021;51.182;3.160;2022-12-10T01:39:22;1.30;99.90
11922;DHT22;6021;51.182;3.160;2022-12-10T01:41:56;1.00;99.90
11922;DHT22;6021;51.182;3.160;2022-12-10T01:46:58;1.10;99.90
11922;DHT22;6021;51.182;3.160;2022-12-10T01:49:40;1.00;99.90
11922;DHT22;6021;51.182;3.160;2022-12-10T01:52:07;1.00;99.90
11922;DHT22;6021;51.182;3.160;2022-12-10T01:54:42;0.80;99.90
11922;DHT22;6021;51.182;3.160;2022-12-10T01:57:21;1.00;99.90
11922;DHT22;6021;51.182;3.160;2022-12-10T01:59:58;0.80;99.90
11922;DHT22;6021;51.182;3.160;2022-12-10T02:05:13;0.90;99.90
11922;DHT22;6021;51.182;3.160;2022-12-10T02:08:05;0.80;99.90
11922;DHT22;6021;51.182;3.160;2022-12-10T02:11:03;0.80;99.90
11922;DHT22;6021;51.182;3.160;2022-12-10T02:13:41;1.00;99.90
11922;DHT22;6021;51.182;3.160;2022-12-10T02:19:03;0.60;99.90
11922;DHT22;6021;51.182;3.160;2022-12-10T02:21:33;1.10;99.90
11922;DHT22;6021;51.182;3.160;2022-12-10T02:24:04;1.20;99.90
11922;DHT22;6021;51.182;3.160;2022-12-10T02:29:37;1.10;99.90
11922;DHT22;6021;51.182;3.160;2022-12-10T02:32:12;1.50;99.90
11922;DHT22;6021;51.182;3.160;2022-12-10T02:34:45;1.00;99.90
11922;DHT22;6021;51.182;3.160;2022-12-10T02:37:18;0.80;99.90
11922;DHT22;6021;51.182;3.160;2022-12-10T02:39:45;0.80;99.90
11922;DHT22;6021;51.182;3.160;2022-12-10T02:42:15;0.80;99.90
11922;DHT22;6021;51.182;3.160;2022-12-10T02:44:45;1.00;99.90
11922;DHT22;6021;51.182;3.160;2022-12-10T02:47:16;0.80;99.90
11922;DHT22;6021;51.182;3.160;2022-12-10T02:49:51;1.00;99.90
11922;DHT22;6021;51.182;3.160;2022-12-10T02:52:22;0.60;99.90
11922;DHT22;6021;51.182;3.160;2022-12-10T02:54:51;1.00;99.90
11922;DHT22;6021;51.182;3.160;2022-12-10T03:00:16;0.80;99.90
11922;DHT22;6021;51.182;3.160;2022-12-10T03:03:07;0.70;99.90
11922;DHT22;6021;51.182;3.160;2022-12-10T03:08:27;1.00;99.90
11922;DHT22;6021;51.182;3.160;2022-12-10T03:11:04;0.80;99.90
11922;DHT22;6021;51.182;3.160;2022-12-10T03:13:37;1.10;99.90
11922;DHT22;6021;51.182;3.160;2022-12-10T03:16:05;1.20;99.90
11922;DHT22;6021;51.182;3.160;2022-12-10T03:18:35;0.90;99.90
11922;DHT22;6021;51.182;3.160;2022-12-10T03:21:06;0.60;99.90
11922;DHT22;6021;51.182;3.160;2022-12-10T03:23:37;0.60;99.90
11922;DHT22;6021;51.182;3.160;2022-12-10T03:26:08;0.80;99.90
11922;DHT22;6021;51.182;3.160;2022-12-10T03:28:40;0.70;99.90
11922;DHT22;6021;51.182;3.160;2022-12-10T03:31:09;0.60;99.90
11922;DHT22;6021;51.182;3.160;2022-12-10T03:33:39;0.60;99.90
11922;DHT22;6021;51.182;3.160;2022-12-10T03:36:08;0.90;99.90
11922;DHT22;6021;51.182;3.160;2022-12-10T03:38:37;0.60;99.90
11922;DHT22;6021;51.182;3.160;2022-12-10T03:41:06;0.70;99.90
11922;DHT22;6021;51.182;3.160;2022-12-10T03:43:35;0.70;99.90
11922;DHT22;6021;51.182;3.160;2022-12-10T03:46:04;0.70;99.90
11922;DHT22;6021;51.182;3.160;2022-12-10T03:48:32;0.50;99.90
11922;DHT22;6021;51.182;3.160;2022-12-10T03:51:00;0.60;99.90
11922;DHT22;6021;51.182;3.160;2022-12-10T03:53:29;0.60;99.90
11922;DHT22;6021;51.182;3.160;2022-12-10T03:55:57;1.00;99.90
11922;DHT22;6021;51.182;3.160;2022-12-10T03:58:25;0.90;99.90
11922;DHT22;6021;51.182;3.160;2022-12-10T04:00:54;0.80;99.90
11922;DHT22;6021;51.182;3.160;2022-12-10T04:03:22;1.10;99.90
11922;DHT22;6021;51.182;3.160;2022-12-10T04:05:51;1.00;99.90
11922;DHT22;6021;51.182;3.160;2022-12-10T04:08:19;0.90;99.90
11922;DHT22;6021;51.182;3.160;2022-12-10T04:10:47;0.80;99.90
11922;DHT22;6021;51.182;3.160;2022-12-10T04:13:16;0.80;99.90
11922;DHT22;6021;51.182;3.160;2022-12-10T04:16:02;0.70;99.90
11922;DHT22;6021;51.182;3.160;2022-12-10T04:18:48;0.60;99.90
11922;DHT22;6021;51.182;3.160;2022-12-10T04:21:16;0.40;99.90
11922;DHT22;6021;51.182;3.160;2022-12-10T04:24:02;0.50;99.90
11922;DHT22;6021;51.182;3.160;2022-12-10T04:26:48;0.80;99.90
11922;DHT22;6021;51.182;3.160;2022-12-10T04:29:25;0.60;99.90
11922;DHT22;6021;51.182;3.160;2022-12-10T04:31:54;0.70;99.90
11922;DHT22;6021;51.182;3.160;2022-12-10T04:34:23;0.60;99.90
11922;DHT22;6021;51.182;3.160;2022-12-10T04:36:52;0.70;99.90
11922;DHT22;6021;51.182;3.160;2022-12-10T04:39:20;0.90;99.90
11922;DHT22;6021;51.182;3.160;2022-12-10T04:41:49;0.70;99.90
11922;DHT22;6021;51.182;3.160;2022-12-10T04:44:18;0.50;99.90
11922;DHT22;6021;51.182;3.160;2022-12-10T04:46:47;0.30;99.90
11922;DHT22;6021;51.182;3.160;2022-12-10T04:49:16;0.40;99.90
11922;DHT22;6021;51.182;3.160;2022-12-10T04:51:45;0.70;99.90
11922;DHT22;6021;51.182;3.160;2022-12-10T04:54:14;0.50;99.90
11922;DHT22;6021;51.182;3.160;2022-12-10T04:56:42;0.80;99.90
11922;DHT22;6021;51.182;3.160;2022-12-10T04:59:11;0.70;99.90
11922;DHT22;6021;51.182;3.160;2022-12-10T05:01:39;0.70;99.90
11922;DHT22;6021;51.182;3.160;2022-12-10T05:04:09;0.90;99.90
11922;DHT22;6021;51.182;3.160;2022-12-10T05:06:39;0.70;99.90
11922;DHT22;6021;51.182;3.160;2022-12-10T05:09:08;0.70;99.90
11922;DHT22;6021;51.182;3.160;2022-12-10T05:11:36;0.50;99.90
11922;DHT22;6021;51.182;3.160;2022-12-10T05:16:51;0.60;99.90
11922;DHT22;6021;51.182;3.160;2022-12-10T05:19:20;0.40;99.90
11922;DHT22;6021;51.182;3.160;2022-12-10T05:21:49;0.70;99.90
11922;DHT22;6021;51.182;3.160;2022-12-10T05:24:36;0.70;99.90
11922;DHT22;6021;51.182;3.160;2022-12-10T05:27:04;0.90;99.90
11922;DHT22;6021;51.182;3.160;2022-12-10T05:29:33;0.90;99.90
11922;DHT22;6021;51.182;3.160;2022-12-10T05:32:03;1.00;99.90
11922;DHT22;6021;51.182;3.160;2022-12-10T05:34:31;0.90;99.90
11922;DHT22;6021;51.182;3.160;2022-12-10T05:37:00;1.00;99.90
11922;DHT22;6021;51.182;3.160;2022-12-10T05:39:28;1.10;99.90
11922;DHT22;6021;51.182;3.160;2022-12-10T05:41:57;0.70;99.90
11922;DHT22;6021;51.182;3.160;2022-12-10T05:44:25;0.70;99.90
11922;DHT22;6021;51.182;3.160;2022-12-10T05:46:54;0.50;99.90
11922;DHT22;6021;51.182;3.160;2022-12-10T05:49:22;0.60;99.90
11922;DHT22;6021;51.182;3.160;2022-12-10T05:51:51;0.60;99.90
11922;DHT22;6021;51.182;3.160;2022-12-10T05:54:20;0.70;99.90
11922;DHT22;6021;51.182;3.160;2022-12-10T05:56:49;0.60;99.90
11922;DHT22;6021;51.182;3.160;2022-12-10T05:59:17;0.90;99.90
11922;DHT22;6021;51.182;3.160;2022-12-10T06:01:46;0.70;99.90
11922;DHT22;6021;51.182;3.160;2022-12-10T06:04:14;0.50;99.90
11922;DHT22;6021;51.182;3.160;2022-12-10T06:06:43;0.50;99.90
11922;DHT22;6021;51.182;3.160;2022-12-10T06:09:12;0.50;99.90
11922;DHT22;6021;51.182;3.160;2022-12-10T06:11:41;0.40;99.90
11922;DHT22;6021;51.182;3.160;2022-12-10T06:14:10;0.60;99.90
11922;DHT22;6021;51.182;3.160;2022-12-10T06:16:39;0.60;99.90
11922;DHT22;6021;51.182;3.160;2022-12-10T06:19:08;0.70;99.90
11922;DHT22;6021;51.182;3.160;2022-12-10T06:21:37;0.60;99.90
11922;DHT22;6021;51.182;3.160;2022-12-10T06:24:06;0.60;99.90
11922;DHT22;6021;51.182;3.160;2022-12-10T06:26:35;0.30;99.90
11922;DHT22;6021;51.182;3.160;2022-12-10T06:29:03;0.50;99.90
11922;DHT22;6021;51.182;3.160;2022-12-10T06:31:32;0.60;99.90
11922;DHT22;6021;51.182;3.160;2022-12-10T06:34:00;0.70;99.90
11922;DHT22;6021;51.182;3.160;2022-12-10T06:36:29;0.70;99.90
11922;DHT22;6021;51.182;3.160;2022-12-10T06:38:58;0.60;99.90
11922;DHT22;6021;51.182;3.160;2022-12-10T06:41:29;0.50;99.90
11922;DHT22;6021;51.182;3.160;2022-12-10T06:43:57;0.40;99.90
11922;DHT22;6021;51.182;3.160;2022-12-10T06:46:26;0.20;99.90
11922;DHT22;6021;51.182;3.160;2022-12-10T06:49:01;0.20;99.90
11922;DHT22;6021;51.182;3.160;2022-12-10T06:51:31;0.30;99.90
11922;DHT22;6021;51.182;3.160;2022-12-10T06:54:00;0.10;99.90
11922;DHT22;6021;51.182;3.160;2022-12-10T06:56:28;0.20;99.90
11922;DHT22;6021;51.182;3.160;2022-12-10T06:58:58;0.60;99.90
11922;DHT22;6021;51.182;3.160;2022-12-10T07:01:26;0.80;99.90
11922;DHT22;6021;51.182;3.160;2022-12-10T07:03:56;0.40;99.90
11922;DHT22;6021;51.182;3.160;2022-12-10T07:06:25;0.70;99.90
11922;DHT22;6021;51.182;3.160;2022-12-10T07:08:55;0.50;99.90
11922;DHT22;6021;51.182;3.160;2022-12-10T07:11:25;0.60;99.90
11922;DHT22;6021;51.182;3.160;2022-12-10T07:13:55;0.60;99.90
11922;DHT22;6021;51.182;3.160;2022-12-10T07:16:26;0.90;99.90
11922;DHT22;6021;51.182;3.160;2022-12-10T07:18:57;1.10;99.90
11922;DHT22;6021;51.182;3.160;2022-12-10T07:21:27;0.80;99.90
11922;DHT22;6021;51.182;3.160;2022-12-10T07:23:59;0.80;99.90
11922;DHT22;6021;51.182;3.160;2022-12-10T07:26:32;0.90;99.90
11922;DHT22;6021;51.182;3.160;2022-12-10T07:29:03;1.10;99.90
11922;DHT22;6021;51.182;3.160;2022-12-10T07:31:33;1.10;99.90
11922;DHT22;6021;51.182;3.160;2022-12-10T07:34:01;1.10;99.90
11922;DHT22;6021;51.182;3.160;2022-12-10T07:36:30;1.30;99.90
11922;DHT22;6021;51.182;3.160;2022-12-10T07:38:59;1.30;99.90
11922;DHT22;6021;51.182;3.160;2022-12-10T07:41:27;1.20;99.90
11922;DHT22;6021;51.182;3.160;2022-12-10T07:43:57;1.20;99.90
11922;DHT22;6021;51.182;3.160;2022-12-10T07:46:30;1.20;99.90
11922;DHT22;6021;51.182;3.160;2022-12-10T07:49:02;1.10;99.90
11922;DHT22;6021;51.182;3.160;2022-12-10T07:51:31;1.00;99.90
11922;DHT22;6021;51.182;3.160;2022-12-10T07:54:01;1.00;99.90
11922;DHT22;6021;51.182;3.160;2022-12-10T07:56:31;0.90;99.90
11922;DHT22;6021;51.182;3.160;2022-12-10T07:58:59;0.80;99.90
11922;DHT22;6021;51.182;3.160;2022-12-10T08:01:28;0.90;99.90
11922;DHT22;6021;51.182;3.160;2022-12-10T08:03:57;0.90;99.90
11922;DHT22;6021;51.182;3.160;2022-12-10T08:06:28;0.80;99.90
11922;DHT22;6021;51.182;3.160;2022-12-10T08:08:59;1.00;99.90
11922;DHT22;6021;51.182;3.160;2022-12-10T08:11:28;1.00;99.90
11922;DHT22;6021;51.182;3.160;2022-12-10T08:13:56;0.90;99.90
11922;DHT22;6021;51.182;3.160;2022-12-10T08:16:27;0.90;99.90
11922;DHT22;6021;51.182;3.160;2022-12-10T08:18:58;1.00;99.90
11922;DHT22;6021;51.182;3.160;2022-12-10T08:21:30;1.00;99.90
11922;DHT22;6021;51.182;3.160;2022-12-10T08:23:59;1.00;99.90
11922;DHT22;6021;51.182;3.160;2022-12-10T08:26:30;1.10;99.90
11922;DHT22;6021;51.182;3.160;2022-12-10T08:28:59;1.30;99.90
11922;DHT22;6021;51.182;3.160;2022-12-10T08:31:28;1.20;99.90
11922;DHT22;6021;51.182;3.160;2022-12-10T08:33:57;1.10;99.90
11922;DHT22;6021;51.182;3.160;2022-12-10T08:36:25;1.10;99.90
11922;DHT22;6021;51.182;3.160;2022-12-10T08:38:55;1.10;99.90
11922;DHT22;6021;51.182;3.160;2022-12-10T08:41:23;1.30;99.90
11922;DHT22;6021;51.182;3.160;2022-12-10T08:43:53;1.20;99.90
11922;DHT22;6021;51.182;3.160;2022-12-10T08:46:22;1.20;99.90
11922;DHT22;6021;51.182;3.160;2022-12-10T08:48:52;1.00;99.90
11922;DHT22;6021;51.182;3.160;2022-12-10T08:51:21;1.10;99.90
11922;DHT22;6021;51.182;3.160;2022-12-10T08:53:50;1.20;99.90
11922;DHT22;6021;51.182;3.160;2022-12-10T08:56:18;1.30;99.90
11922;DHT22;6021;51.182;3.160;2022-12-10T08:58:46;1.20;99.90
11922;DHT22;6021;51.182;3.160;2022-12-10T09:01:17;1.30;99.90
11922;DHT22;6021;51.182;3.160;2022-12-10T09:03:45;1.50;99.90
11922;DHT22;6021;51.182;3.160;2022-12-10T09:06:16;1.70;99.90
11922;DHT22;6021;51.182;3.160;2022-12-10T09:08:45;2.00;99.90
11922;DHT22;6021;51.182;3.160;2022-12-10T09:11:17;2.20;99.90
11922;DHT22;6021;51.182;3.160;2022-12-10T09:13:45;2.40;99.90
11922;DHT22;6021;51.182;3.160;2022-12-10T09:16:14;2.30;99.90
11922;DHT22;6021;51.182;3.160;2022-12-10T09:18:42;2.20;99.90
11922;DHT22;6021;51.182;3.160;2022-12-10T09:21:13;2.60;99.90
11922;DHT22;6021;51.182;3.160;2022-12-10T09:23:43;2.30;99.90
11922;DHT22;6021;51.182;3.160;2022-12-10T09:28:48;2.70;99.90
11922;DHT22;6021;51.182;3.160;2022-12-10T09:31:18;2.50;99.90
11922;DHT22;6021;51.182;3.160;2022-12-10T09:33:48;2.70;99.90
11922;DHT22;6021;51.182;3.160;2022-12-10T09:36:17;2.90;99.90
11922;DHT22;6021;51.182;3.160;2022-12-10T09:38:47;3.10;99.90
11922;DHT22;6021;51.182;3.160;2022-12-10T09:44:03;3.20;99.90
11922;DHT22;6021;51.182;3.160;2022-12-10T09:46:56;3.30;99.90
11922;DHT22;6021;51.182;3.160;2022-12-10T09:52:02;3.20;99.90
11922;DHT22;6021;51.182;3.160;2022-12-10T09:54:33;3.00;99.90
11922;DHT22;6021;51.182;3.160;2022-12-10T09:57:03;2.90;99.90
11922;DHT22;6021;51.182;3.160;2022-12-10T09:59:42;2.80;99.90
11922;DHT22;6021;51.182;3.160;2022-12-10T10:02:25;2.70;99.90
11922;DHT22;6021;51.182;3.160;2022-12-10T10:05:44;3.00;99.90
11922;DHT22;6021;51.182;3.160;2022-12-10T10:07:28;3.20;99.90
11922;DHT22;6021;51.182;3.160;2022-12-10T10:10:02;3.20;99.90
11922;DHT22;6021;51.182;3.160;2022-12-10T10:12:31;3.00;99.90
11922;DHT22;6021;51.182;3.160;2022-12-10T10:15:12;2.80;99.90
11922;DHT22;6021;51.182;3.160;2022-12-10T10:17:42;3.00;99.90
11922;DHT22;6021;51.182;3.160;2022-12-10T10:20:14;2.60;99.90
11922;DHT22;6021;51.182;3.160;2022-12-10T10:22:44;2.50;99.90
11922;DHT22;6021;51.182;3.160;2022-12-10T10:25:16;2.70;99.90
11922;DHT22;6021;51.182;3.160;2022-12-10T10:27:47;2.70;99.90
11922;DHT22;6021;51.182;3.160;2022-12-10T10:30:18;2.60;99.90
11922;DHT22;6021;51.182;3.160;2022-12-10T10:32:50;2.50;99.90
11922;DHT22;6021;51.182;3.160;2022-12-10T10:35:24;2.40;99.90
11922;DHT22;6021;51.182;3.160;2022-12-10T10:38:00;2.60;99.90
11922;DHT22;6021;51.182;3.160;2022-12-10T10:40:45;2.70;99.90
11922;DHT22;6021;51.182;3.160;2022-12-10T10:43:00;2.60;99.90
11922;DHT22;6021;51.182;3.160;2022-12-10T10:45:32;2.70;99.90
11922;DHT22;6021;51.182;3.160;2022-12-10T10:51:07;2.90;99.90
11922;DHT22;6021;51.182;3.160;2022-12-10T10:53:44;2.60;99.90
11922;DHT22;6021;51.182;3.160;2022-12-10T10:59:04;2.90;99.90
11922;DHT22;6021;51.182;3.160;2022-12-10T11:04:43;2.60;99.90
11922;DHT22;6021;51.182;3.160;2022-12-10T11:07:14;2.80;99.90
11922;DHT22;6021;51.182;3.160;2022-12-10T11:09:38;2.70;99.90
11922;DHT22;6021;51.182;3.160;2022-12-10T11:12:33;2.60;99.90
11922;DHT22;6021;51.182;3.160;2022-12-10T11:14:45;2.70;99.90
11922;DHT22;6021;51.182;3.160;2022-12-10T11:17:25;2.70;99.90
11922;DHT22;6021;51.182;3.160;2022-12-10T11:19:57;3.00;99.90
11922;DHT22;6021;51.182;3.160;2022-12-10T11:22:32;3.60;99.90
11922;DHT22;6021;51.182;3.160;2022-12-10T11:25:01;3.50;99.90
11922;DHT22;6021;51.182;3.160;2022-12-10T11:27:43;3.50;99.90
11922;DHT22;6021;51.182;3.160;2022-12-10T11:30:22;3.30;99.90
11922;DHT22;6021;51.182;3.160;2022-12-10T11:33:09;3.40;99.90
11922;DHT22;6021;51.182;3.160;2022-12-10T11:38:20;3.70;99.90
11922;DHT22;6021;51.182;3.160;2022-12-10T11:41:27;4.00;99.90
11922;DHT22;6021;51.182;3.160;2022-12-10T11:43:42;4.20;99.90
11922;DHT22;6021;51.182;3.160;2022-12-10T11:46:20;4.20;99.90
11922;DHT22;6021;51.182;3.160;2022-12-10T11:49:03;4.20;99.90
11922;DHT22;6021;51.182;3.160;2022-12-10T11:52:10;4.30;99.90
11922;DHT22;6021;51.182;3.160;2022-12-10T11:54:58;4.00;99.90
11922;DHT22;6021;51.182;3.160;2022-12-10T11:57:43;4.10;99.90
11922;DHT22;6021;51.182;3.160;2022-12-10T12:00:24;4.00;99.90
11922;DHT22;6021;51.182;3.160;2022-12-10T12:06:08;4.00;99.90
11922;DHT22;6021;51.182;3.160;2022-12-10T12:08:59;4.20;99.90
11922;DHT22;6021;51.182;3.160;2022-12-10T12:14:20;4.30;99.90
11922;DHT22;6021;51.182;3.160;2022-12-10T12:16:47;4.20;99.90
11922;DHT22;6021;51.182;3.160;2022-12-10T12:19:18;4.30;99.90
11922;DHT22;6021;51.182;3.160;2022-12-10T12:21:48;4.70;99.90
11922;DHT22;6021;51.182;3.160;2022-12-10T12:24:34;4.70;99.90
11922;DHT22;6021;51.182;3.160;2022-12-10T12:27:25;4.90;99.90
11922;DHT22;6021;51.182;3.160;2022-12-10T12:29:37;4.70;99.90
11922;DHT22;6021;51.182;3.160;2022-12-10T12:35:23;4.70;99.90
11922;DHT22;6021;51.182;3.160;2022-12-10T12:37:54;4.90;99.90
11922;DHT22;6021;51.182;3.160;2022-12-10T12:40:33;4.90;99.90
11922;DHT22;6021;51.182;3.160;2022-12-10T12:43:16;4.80;99.90
11922;DHT22;6021;51.182;3.160;2022-12-10T12:45:44;4.70;99.90
11922;DHT22;6021;51.182;3.160;2022-12-10T12:52:10;4.70;99.90
11922;DHT22;6021;51.182;3.160;2022-12-10T12:53:50;4.80;99.90
11922;DHT22;6021;51.182;3.160;2022-12-10T13:04:35;6.10;99.90
11922;DHT22;6021;51.182;3.160;2022-12-10T13:09:49;5.70;99.90
11922;DHT22;6021;51.182;3.160;2022-12-10T13:12:32;5.60;99.90
11922;DHT22;6021;51.182;3.160;2022-12-10T13:20:35;5.80;99.90
11922;DHT22;6021;51.182;3.160;2022-12-10T13:23:27;5.90;99.90
11922;DHT22;6021;51.182;3.160;2022-12-10T13:25:41;6.20;99.90
11922;DHT22;6021;51.182;3.160;2022-12-10T13:28:29;6.00;99.90
11922;DHT22;6021;51.182;3.160;2022-12-10T13:34:04;5.90;99.90
11922;DHT22;6021;51.182;3.160;2022-12-10T13:36:27;5.50;99.90
11922;DHT22;6021;51.182;3.160;2022-12-10T13:41:33;5.20;99.90
11922;DHT22;6021;51.182;3.160;2022-12-10T13:49:57;5.00;99.90
11922;DHT22;6021;51.182;3.160;2022-12-10T13:52:51;5.30;99.90
11922;DHT22;6021;51.182;3.160;2022-12-10T13:55:23;5.10;99.90
11922;DHT22;6021;51.182;3.160;2022-12-10T14:00:33;5.80;99.90
11922;DHT22;6021;51.182;3.160;2022-12-10T14:03:24;5.40;99.90
11922;DHT22;6021;51.182;3.160;2022-12-10T14:08:23;5.20;99.90
11922;DHT22;6021;51.182;3.160;2022-12-10T14:10:53;5.10;99.90
11922;DHT22;6021;51.182;3.160;2022-12-10T14:13:25;5.10;99.90
11922;DHT22;6021;51.182;3.160;2022-12-10T14:15:58;4.80;99.90
11922;DHT22;6021;51.182;3.160;2022-12-10T14:18:28;4.80;99.90
11922;DHT22;6021;51.182;3.160;2022-12-10T14:20:58;4.70;99.90
11922;DHT22;6021;51.182;3.160;2022-12-10T14:23:32;4.60;99.90
11922;DHT22;6021;51.182;3.160;2022-12-10T14:26:15;4.70;99.90
11922;DHT22;6021;51.182;3.160;2022-12-10T14:28:43;4.30;99.90
11922;DHT22;6021;51.182;3.160;2022-12-10T14:31:18;4.50;99.90
11922;DHT22;6021;51.182;3.160;2022-12-10T14:33:48;4.30;99.90
11922;DHT22;6021;51.182;3.160;2022-12-10T14:36:26;4.60;99.90
11922;DHT22;6021;51.182;3.160;2022-12-10T14:38:54;4.30;99.90
11922;DHT22;6021;51.182;3.160;2022-12-10T14:41:23;4.20;99.90
11922;DHT22;6021;51.182;3.160;2022-12-10T14:43:52;4.20;99.90
11922;DHT22;6021;51.182;3.160;2022-12-10T14:46:23;4.40;99.90
11922;DHT22;6021;51.182;3.160;2022-12-10T14:48:53;4.30;99.90
11922;DHT22;6021;51.182;3.160;2022-12-10T14:51:30;4.30;99.90
11922;DHT22;6021;51.182;3.160;2022-12-10T14:53:56;4.30;99.90
11922;DHT22;6021;51.182;3.160;2022-12-10T14:56:29;4.30;99.90
11922;DHT22;6021;51.182;3.160;2022-12-10T14:59:04;4.10;99.90
11922;DHT22;6021;51.182;3.160;2022-12-10T15:01:40;4.10;99.90
11922;DHT22;6021;51.182;3.160;2022-12-10T15:04:06;4.00;99.90
11922;DHT22;6021;51.182;3.160;2022-12-10T15:06:36;4.20;99.90
11922;DHT22;6021;51.182;3.160;2022-12-10T15:09:09;3.80;99.90
11922;DHT22;6021;51.182;3.160;2022-12-10T15:11:36;3.80;99.90
11922;DHT22;6021;51.182;3.160;2022-12-10T15:14:04;3.80;99.90
11922;DHT22;6021;51.182;3.160;2022-12-10T15:16:38;3.60;99.90
11922;DHT22;6021;51.182;3.160;2022-12-10T15:19:15;3.80;99.90
11922;DHT22;6021;51.182;3.160;2022-12-10T15:21:43;3.80;99.90
11922;DHT22;6021;51.182;3.160;2022-12-10T15:24:18;3.50;99.90
11922;DHT22;6021;51.182;3.160;2022-12-10T15:26:49;3.70;99.90
11922;DHT22;6021;51.182;3.160;2022-12-10T15:32:03;3.80;99.90
11922;DHT22;6021;51.182;3.160;2022-12-10T15:34:28;4.00;99.90
11922;DHT22;6021;51.182;3.160;2022-12-10T15:37:02;3.80;99.90
11922;DHT22;6021;51.182;3.160;2022-12-10T15:39:34;4.00;99.90
11922;DHT22;6021;51.182;3.160;2022-12-10T15:42:06;3.90;99.90
11922;DHT22;6021;51.182;3.160;2022-12-10T15:44:39;3.70;99.90
11922;DHT22;6021;51.182;3.160;2022-12-10T15:47:18;3.80;99.90
11922;DHT22;6021;51.182;3.160;2022-12-10T15:49:48;3.90;99.90
11922;DHT22;6021;51.182;3.160;2022-12-10T15:52:18;4.00;99.90
11922;DHT22;6021;51.182;3.160;2022-12-10T15:54:49;4.10;99.90
11922;DHT22;6021;51.182;3.160;2022-12-10T15:57:24;4.00;99.90
11922;DHT22;6021;51.182;3.160;2022-12-10T15:59:55;4.00;99.90
11922;DHT22;6021;51.182;3.160;2022-12-10T16:05:30;3.60;99.90
11922;DHT22;6021;51.182;3.160;2022-12-10T16:08:23;3.30;99.90
11922;DHT22;6021;51.182;3.160;2022-12-10T16:10:30;3.60;99.90
11922;DHT22;6021;51.182;3.160;2022-12-10T16:13:00;3.60;99.90
11922;DHT22;6021;51.182;3.160;2022-12-10T16:15:49;3.60;99.90
11922;DHT22;6021;51.182;3.160;2022-12-10T16:18:12;3.50;99.90
11922;DHT22;6021;51.182;3.160;2022-12-10T16:20:41;3.60;99.90
11922;DHT22;6021;51.182;3.160;2022-12-10T16:23:10;3.70;99.90
11922;DHT22;6021;51.182;3.160;2022-12-10T16:25:38;3.60;99.90
11922;DHT22;6021;51.182;3.160;2022-12-10T16:28:10;3.60;99.90
11922;DHT22;6021;51.182;3.160;2022-12-10T16:30:44;3.40;99.90
11922;DHT22;6021;51.182;3.160;2022-12-10T16:33:12;3.60;99.90
11922;DHT22;6021;51.182;3.160;2022-12-10T16:35:41;3.60;99.90
11922;DHT22;6021;51.182;3.160;2022-12-10T16:38:10;3.60;99.90
11922;DHT22;6021;51.182;3.160;2022-12-10T16:40:39;3.40;99.90
11922;DHT22;6021;51.182;3.160;2022-12-10T16:43:14;3.30;99.90
11922;DHT22;6021;51.182;3.160;2022-12-10T16:45:42;3.10;99.90
11922;DHT22;6021;51.182;3.160;2022-12-10T16:48:11;3.20;99.90
11922;DHT22;6021;51.182;3.160;2022-12-10T16:50:40;3.10;99.90
11922;DHT22;6021;51.182;3.160;2022-12-10T16:53:31;3.30;99.90
11922;DHT22;6021;51.182;3.160;2022-12-10T16:55:56;3.10;99.90
11922;DHT22;6021;51.182;3.160;2022-12-10T16:58:25;3.30;99.90
11922;DHT22;6021;51.182;3.160;2022-12-10T17:00:54;3.60;99.90
11922;DHT22;6021;51.182;3.160;2022-12-10T17:03:24;3.30;99.90
11922;DHT22;6021;51.182;3.160;2022-12-10T17:05:57;3.30;99.90
11922;DHT22;6021;51.182;3.160;2022-12-10T17:08:26;3.00;99.90
11922;DHT22;6021;51.182;3.160;2022-12-10T17:10:56;3.20;99.90
11922;DHT22;6021;51.182;3.160;2022-12-10T17:13:44;3.00;99.90
11922;DHT22;6021;51.182;3.160;2022-12-10T17:16:15;2.90;99.90
11922;DHT22;6021;51.182;3.160;2022-12-10T17:18:44;3.40;99.90
11922;DHT22;6021;51.182;3.160;2022-12-10T17:21:12;3.30;99.90
11922;DHT22;6021;51.182;3.160;2022-12-10T17:23:40;2.90;99.90
11922;DHT22;6021;51.182;3.160;2022-12-10T17:26:30;2.90;99.90
11922;DHT22;6021;51.182;3.160;2022-12-10T17:28:43;3.20;99.90
11922;DHT22;6021;51.182;3.160;2022-12-10T17:31:11;3.00;99.90
11922;DHT22;6021;51.182;3.160;2022-12-10T17:33:40;2.90;99.90
11922;DHT22;6021;51.182;3.160;2022-12-10T17:36:09;2.80;99.90
11922;DHT22;6021;51.182;3.160;2022-12-10T17:38:38;2.90;99.90
11922;DHT22;6021;51.182;3.160;2022-12-10T17:41:07;2.90;99.90
11922;DHT22;6021;51.182;3.160;2022-12-10T17:43:36;2.70;99.90
11922;DHT22;6021;51.182;3.160;2022-12-10T17:46:04;2.70;99.90
11922;DHT22;6021;51.182;3.160;2022-12-10T17:48:34;2.60;99.90
11922;DHT22;6021;51.182;3.160;2022-12-10T17:51:03;2.40;99.90
11922;DHT22;6021;51.182;3.160;2022-12-10T17:53:31;2.20;99.90
11922;DHT22;6021;51.182;3.160;2022-12-10T17:56:00;2.20;99.90
11922;DHT22;6021;51.182;3.160;2022-12-10T17:58:29;2.10;99.90
11922;DHT22;6021;51.182;3.160;2022-12-10T18:00:57;2.80;99.90